Time;durP1;ratioP1;P1;durP2;ratioP2;P2;SDS_P1;SDS_P2;PMS_P1;PMS_P2;Temp;Humidity;BMP_temperature;BMP_pressure;BME280_temperature;BME280_humidity;BME280_pressure;Samples;Min_cycle;Max_cycle;Signal;HPM_P1;HPM_P2
2023/12/13 00:01:43;;;;;;;38.75;21.33;;;;;;;;;;4997133;28;20037;-61
2023/12/13 00:04:09;;;;;;;38.25;20.95;;;;;;;;;;4996368;28;20033;-61
2023/12/13 00:06:35;;;;;;;38.00;19.95;;;;;;;;;;4996632;28;20034;-61
2023/12/13 00:09:02;;;;;;;30.85;19.65;;;;;;;;;;4991878;28;20033;-61
2023/12/13 00:11:28;;;;;;;37.78;19.27;;;;;;;;;;4995687;28;20046;-61
2023/12/13 00:13:54;;;;;;;30.90;17.75;;;;;;;;;;4996028;28;20021;-61
2023/12/13 00:16:21;;;;;;;30.88;16.35;;;;;;;;;;4997297;28;20041;-61
2023/12/13 00:18:47;;;;;;;29.80;16.65;;;;;;;;;;4997943;28;20042;-62
2023/12/13 00:21:15;;;;;;;30.40;16.95;;;;;;;;;;4995719;28;20033;-62
2023/12/13 00:23:48;;;;;;;32.50;16.30;;;;;;;;;;4997194;28;20067;-61
2023/12/13 00:26:15;;;;;;;25.60;14.27;;;;;;;;;;4995669;28;20025;-62
2023/12/13 00:28:41;;;;;;;28.48;15.35;;;;;;;;;;4998207;28;20068;-62
2023/12/13 00:31:07;;;;;;;29.52;15.75;;;;;;;;;;4997454;28;20091;-61
2023/12/13 00:33:33;;;;;;;25.63;14.77;;;;;;;;;;4998559;28;20917;-62
2023/12/13 00:35:59;;;;;;;26.60;14.95;;;;;;;;;;4998052;28;20529;-62
2023/12/13 00:38:26;;;;;;;24.90;14.18;;;;;;;;;;4997686;28;20160;-62
2023/12/13 00:40:52;;;;;;;26.02;13.98;;;;;;;;;;4998560;28;20076;-62
2023/12/13 00:43:18;;;;;;;22.33;13.60;;;;;;;;;;4996712;28;20087;-62
2023/12/13 00:45:44;;;;;;;26.98;14.32;;;;;;;;;;4997441;28;20989;-62
2023/12/13 00:48:10;;;;;;;27.05;14.23;;;;;;;;;;4996447;28;20058;-62
2023/12/13 00:50:36;;;;;;;28.20;13.68;;;;;;;;;;4997218;28;20080;-62
2023/12/13 00:53:02;;;;;;;43.45;14.40;;;;;;;;;;4997866;28;20120;-62
2023/12/13 00:55:28;;;;;;;28.90;13.82;;;;;;;;;;4997576;28;20025;-62
2023/12/13 00:57:54;;;;;;;28.95;13.05;;;;;;;;;;4994573;28;20385;-61
2023/12/13 01:00:21;;;;;;;22.15;12.60;;;;;;;;;;4997717;28;20030;-61
2023/12/13 01:02:47;;;;;;;21.75;13.45;;;;;;;;;;4996740;28;21179;-61
2023/12/13 01:05:13;;;;;;;22.02;12.43;;;;;;;;;;4997539;28;20479;-62
2023/12/13 01:07:39;;;;;;;20.92;11.20;;;;;;;;;;4997767;28;20034;-62
2023/12/13 01:10:05;;;;;;;22.10;10.95;;;;;;;;;;4996679;28;20033;-62
2023/12/13 01:12:31;;;;;;;21.83;10.20;;;;;;;;;;5011899;28;20049;-62
2023/12/13 01:14:57;;;;;;;18.38;10.40;;;;;;;;;;4998373;28;20030;-61
2023/12/13 01:17:23;;;;;;;18.02;11.35;;;;;;;;;;4998884;28;20041;-62
2023/12/13 01:19:51;;;;;;;19.67;10.40;;;;;;;;;;4997378;28;20041;-62
2023/12/13 01:22:18;;;;;;;22.95;12.40;;;;;;;;;;4998212;28;20030;-61
2023/12/13 01:24:44;;;;;;;22.67;12.85;;;;;;;;;;4996978;28;20038;-61
2023/12/13 01:27:10;;;;;;;25.33;11.98;;;;;;;;;;4997000;28;20042;-62
2023/12/13 01:29:36;;;;;;;22.58;13.00;;;;;;;;;;4996960;28;20037;-62
2023/12/13 01:32:02;;;;;;;27.70;13.25;;;;;;;;;;4997279;28;20042;-62
2023/12/13 01:34:29;;;;;;;22.95;13.25;;;;;;;;;;4997476;28;20034;-61
2023/12/13 01:36:55;;;;;;;23.52;13.80;;;;;;;;;;4996202;28;20025;-61
2023/12/13 01:39:21;;;;;;;28.25;13.98;;;;;;;;;;4998289;28;20044;-61
2023/12/13 01:41:47;;;;;;;27.33;14.27;;;;;;;;;;5000499;28;20037;-62
2023/12/13 01:44:13;;;;;;;25.52;13.27;;;;;;;;;;5001311;28;20030;-62
2023/12/13 01:46:40;;;;;;;29.17;15.13;;;;;;;;;;5000557;28;20037;-61
2023/12/13 01:49:06;;;;;;;26.05;15.05;;;;;;;;;;5000874;28;20061;-61
2023/12/13 01:51:36;;;;;;;33.65;16.73;;;;;;;;;;5001325;28;20029;-61
2023/12/13 01:54:03;;;;;;;39.03;15.05;;;;;;;;;;5001349;28;20128;-62
2023/12/13 01:56:29;;;;;;;27.73;14.90;;;;;;;;;;5015954;28;20045;-62
2023/12/13 01:58:55;;;;;;;28.02;15.15;;;;;;;;;;5001550;28;20037;-62
2023/12/13 02:01:21;;;;;;;26.88;14.55;;;;;;;;;;5001118;28;20042;-62
2023/12/13 02:03:47;;;;;;;26.33;14.35;;;;;;;;;;5000268;28;20031;-62
2023/12/13 02:06:13;;;;;;;32.25;15.77;;;;;;;;;;5000884;28;20034;-62
2023/12/13 02:08:40;;;;;;;27.73;15.60;;;;;;;;;;4999459;28;20758;-61
2023/12/13 02:11:06;;;;;;;31.52;16.73;;;;;;;;;;5000038;28;20069;-62
2023/12/13 02:13:32;;;;;;;31.13;15.82;;;;;;;;;;4999586;28;20041;-62
2023/12/13 02:15:58;;;;;;;32.38;15.98;;;;;;;;;;5000975;28;20038;-62
2023/12/13 02:18:24;;;;;;;31.25;16.45;;;;;;;;;;5001032;28;20057;-61
2023/12/13 02:20:52;;;;;;;31.60;16.20;;;;;;;;;;5000851;28;20030;-62
2023/12/13 02:23:18;;;;;;;32.33;16.08;;;;;;;;;;4999359;28;20029;-62
2023/12/13 02:25:50;;;;;;;32.42;16.33;;;;;;;;;;4996729;28;20157;-62
2023/12/13 02:28:16;;;;;;;29.10;15.95;;;;;;;;;;5000318;28;20967;-62
2023/12/13 02:30:43;;;;;;;32.92;17.75;;;;;;;;;;5000385;28;21030;-61
2023/12/13 02:33:09;;;;;;;35.05;16.90;;;;;;;;;;5000581;28;20045;-61
2023/12/13 02:35:35;;;;;;;29.88;16.73;;;;;;;;;;5000902;28;20029;-62
2023/12/13 02:38:01;;;;;;;35.22;17.75;;;;;;;;;;5000154;28;20151;-62
2023/12/13 02:40:28;;;;;;;29.65;16.33;;;;;;;;;;4999873;28;20025;-62
2023/12/13 02:42:55;;;;;;;31.77;16.92;;;;;;;;;;5000109;28;20493;-61
2023/12/13 02:45:21;;;;;;;34.97;16.92;;;;;;;;;;5000347;28;20119;-61
2023/12/13 02:47:49;;;;;;;45.50;19.08;;;;;;;;;;4999308;28;20160;-61
2023/12/13 02:50:16;;;;;;;47.63;17.77;;;;;;;;;;5000215;28;20048;-61
2023/12/13 02:52:42;;;;;;;40.42;18.70;;;;;;;;;;4999762;28;20036;-62
2023/12/13 02:55:09;;;;;;;32.53;18.23;;;;;;;;;;5000251;28;20030;-61
2023/12/13 02:57:35;;;;;;;34.40;18.85;;;;;;;;;;4998286;28;20064;-61
2023/12/13 03:00:03;;;;;;;43.97;20.85;;;;;;;;;;4998752;28;20033;-62
2023/12/13 03:02:29;;;;;;;41.03;18.55;;;;;;;;;;4999289;28;20041;-62
2023/12/13 03:04:55;;;;;;;43.28;18.23;;;;;;;;;;4999176;28;20033;-62
2023/12/13 03:07:22;;;;;;;38.33;19.30;;;;;;;;;;5000539;28;20037;-62
2023/12/13 03:09:48;;;;;;;35.40;18.90;;;;;;;;;;4999452;28;20030;-61
2023/12/13 03:12:14;;;;;;;44.33;19.88;;;;;;;;;;4998847;28;20087;-61
2023/12/13 03:14:40;;;;;;;35.30;18.40;;;;;;;;;;4997891;28;20040;-62
2023/12/13 03:17:06;;;;;;;45.38;19.77;;;;;;;;;;5000160;28;20079;-61
2023/12/13 03:19:32;;;;;;;35.75;17.80;;;;;;;;;;4999652;28;20026;-62
2023/12/13 03:21:58;;;;;;;30.92;17.20;;;;;;;;;;4999574;28;20887;-62
2023/12/13 03:24:24;;;;;;;74.53;20.95;;;;;;;;;;4999975;28;20684;-62
2023/12/13 03:26:51;;;;;;;40.78;17.98;;;;;;;;;;4998369;28;21504;-61
2023/12/13 03:29:17;;;;;;;40.80;18.45;;;;;;;;;;4998641;28;20037;-62
2023/12/13 03:31:43;;;;;;;39.13;18.13;;;;;;;;;;4999003;28;20118;-62
2023/12/13 03:34:09;;;;;;;42.63;20.50;;;;;;;;;;4999881;28;20034;-62
2023/12/13 03:36:35;;;;;;;47.15;19.63;;;;;;;;;;4998667;28;20032;-62
2023/12/13 03:39:02;;;;;;;35.22;18.25;;;;;;;;;;4999222;28;20026;-62
2023/12/13 03:41:28;;;;;;;36.17;19.08;;;;;;;;;;4998825;28;20065;-62
2023/12/13 03:43:54;;;;;;;44.95;19.38;;;;;;;;;;4997992;28;20531;-62
2023/12/13 03:46:21;;;;;;;39.67;17.95;;;;;;;;;;4999754;28;20539;-62
2023/12/13 03:48:47;;;;;;;32.80;17.83;;;;;;;;;;4999292;28;20156;-62
2023/12/13 03:51:14;;;;;;;34.50;18.60;;;;;;;;;;4998512;28;20586;-62
2023/12/13 03:53:42;;;;;;;36.25;17.45;;;;;;;;;;4999625;28;20072;-61
2023/12/13 03:56:08;;;;;;;44.92;17.67;;;;;;;;;;4995541;28;20030;-62
2023/12/13 03:58:34;;;;;;;48.08;18.90;;;;;;;;;;4997735;28;20033;-62
2023/12/13 04:01:00;;;;;;;36.88;17.13;;;;;;;;;;4998376;28;21398;-62
2023/12/13 04:03:26;;;;;;;35.97;17.88;;;;;;;;;;4997534;28;20041;-62
2023/12/13 04:05:52;;;;;;;35.10;18.05;;;;;;;;;;4998976;28;20116;-62
2023/12/13 04:08:18;;;;;;;38.42;17.75;;;;;;;;;;5011071;28;21123;-62
2023/12/13 04:10:44;;;;;;;33.38;17.00;;;;;;;;;;4998090;28;22382;-62
2023/12/13 04:13:10;;;;;;;51.60;19.25;;;;;;;;;;4998429;28;21077;-62
2023/12/13 04:15:37;;;;;;;36.67;17.05;;;;;;;;;;4996445;28;20030;-62
2023/12/13 04:18:04;;;;;;;34.75;16.67;;;;;;;;;;4998404;28;21964;-62
2023/12/13 04:20:30;;;;;;;48.88;19.55;;;;;;;;;;4996267;28;20048;-62
2023/12/13 04:22:56;;;;;;;56.50;18.83;;;;;;;;;;4997456;28;20137;-62
2023/12/13 04:25:22;;;;;;;49.78;19.10;;;;;;;;;;4998191;28;20035;-62
2023/12/13 04:27:48;;;;;;;56.15;19.27;;;;;;;;;;4997648;28;20041;-62
2023/12/13 04:30:15;;;;;;;39.33;17.85;;;;;;;;;;4997448;28;20037;-62
2023/12/13 04:32:41;;;;;;;47.75;18.35;;;;;;;;;;4997468;28;20037;-62
2023/12/13 04:35:08;;;;;;;30.88;16.55;;;;;;;;;;4997890;28;20030;-62
2023/12/13 04:37:34;;;;;;;32.97;17.02;;;;;;;;;;4998529;28;20182;-61
2023/12/13 04:40:00;;;;;;;58.50;18.42;;;;;;;;;;4998353;28;20063;-62
2023/12/13 04:42:26;;;;;;;32.10;16.55;;;;;;;;;;4998680;28;20053;-62
2023/12/13 04:44:53;;;;;;;33.13;16.20;;;;;;;;;;4997545;28;20104;-62
2023/12/13 04:47:20;;;;;;;33.17;15.48;;;;;;;;;;4997193;28;20090;-62
2023/12/13 04:49:46;;;;;;;31.45;16.17;;;;;;;;;;4997948;28;20029;-62
2023/12/13 04:52:12;;;;;;;39.80;16.58;;;;;;;;;;4997422;28;20049;-62
2023/12/13 04:54:38;;;;;;;36.80;15.25;;;;;;;;;;4998261;28;20033;-62
2023/12/13 04:57:04;;;;;;;24.80;14.90;;;;;;;;;;4996950;28;20041;-62
2023/12/13 04:59:31;;;;;;;29.13;15.05;;;;;;;;;;4998305;28;20034;-62
2023/12/13 05:01:57;;;;;;;31.90;14.57;;;;;;;;;;4997332;28;20048;-61
2023/12/13 05:04:23;;;;;;;29.33;14.73;;;;;;;;;;4997893;28;20026;-62
2023/12/13 05:06:49;;;;;;;37.10;15.95;;;;;;;;;;4998200;28;21032;-62
2023/12/13 05:09:15;;;;;;;27.50;14.68;;;;;;;;;;4997543;28;20104;-62
2023/12/13 05:11:41;;;;;;;29.02;14.73;;;;;;;;;;4998322;28;20141;-62
2023/12/13 05:14:08;;;;;;;38.05;15.88;;;;;;;;;;4996676;28;20041;-62
2023/12/13 05:16:34;;;;;;;23.52;14.20;;;;;;;;;;4997376;28;20108;-62
2023/12/13 05:19:00;;;;;;;36.55;16.60;;;;;;;;;;4995822;28;20030;-62
2023/12/13 05:21:26;;;;;;;28.20;15.13;;;;;;;;;;4998029;28;20509;-62
2023/12/13 05:23:52;;;;;;;26.25;15.27;;;;;;;;;;4998065;28;20018;-62
2023/12/13 05:26:18;;;;;;;34.67;15.80;;;;;;;;;;4995879;28;20128;-62
2023/12/13 05:28:44;;;;;;;32.22;15.45;;;;;;;;;;4997032;28;20045;-62
2023/12/13 05:31:23;;;;;;;25.77;15.20;;;;;;;;;;4996108;28;20017;-62
2023/12/13 05:33:50;;;;;;;23.77;15.05;;;;;;;;;;4991530;28;20116;-62
2023/12/13 05:36:17;;;;;;;25.48;15.30;;;;;;;;;;4996650;28;20060;-61
2023/12/13 05:38:46;;;;;;;26.92;15.30;;;;;;;;;;4996563;28;20123;-62
2023/12/13 05:41:12;;;;;;;32.00;16.25;;;;;;;;;;4996471;28;20718;-62
2023/12/13 05:43:38;;;;;;;26.10;15.88;;;;;;;;;;4997236;28;20029;-62
2023/12/13 05:46:05;;;;;;;30.00;15.43;;;;;;;;;;4997170;28;20084;-61
2023/12/13 05:48:31;;;;;;;22.17;14.20;;;;;;;;;;4996404;28;20046;-62
2023/12/13 05:50:58;;;;;;;22.48;15.13;;;;;;;;;;4996371;28;20057;-62
2023/12/13 05:53:24;;;;;;;23.58;14.20;;;;;;;;;;4997614;28;20630;-62
2023/12/13 05:55:50;;;;;;;19.58;13.30;;;;;;;;;;4997162;28;20682;-62
2023/12/13 05:58:16;;;;;;;37.50;16.67;;;;;;;;;;4996109;28;20536;-62
2023/12/13 06:00:42;;;;;;;21.00;13.60;;;;;;;;;;5012132;28;20060;-62
2023/12/13 06:03:09;;;;;;;28.70;15.35;;;;;;;;;;4996690;28;20044;-62
2023/12/13 06:05:35;;;;;;;23.55;15.57;;;;;;;;;;4995957;28;20095;-62
2023/12/13 06:08:01;;;;;;;23.77;15.15;;;;;;;;;;4996943;28;21830;-62
2023/12/13 06:10:27;;;;;;;29.65;15.57;;;;;;;;;;4997331;28;20041;-62
2023/12/13 06:12:53;;;;;;;24.17;14.77;;;;;;;;;;4996229;28;20037;-62
2023/12/13 06:15:21;;;;;;;27.65;16.05;;;;;;;;;;4995818;28;20033;-62
2023/12/13 06:17:47;;;;;;;24.77;15.57;;;;;;;;;;4997449;28;20126;-62
2023/12/13 06:20:13;;;;;;;27.98;15.52;;;;;;;;;;4996415;28;20100;-62
2023/12/13 06:22:39;;;;;;;26.60;15.45;;;;;;;;;;4995018;28;21384;-62
2023/12/13 06:25:06;;;;;;;27.27;14.90;;;;;;;;;;4996559;28;20876;-62
2023/12/13 06:27:32;;;;;;;22.05;14.65;;;;;;;;;;4999309;28;20029;-62
2023/12/13 06:29:58;;;;;;;26.30;15.43;;;;;;;;;;4999368;28;20037;-62
2023/12/13 06:32:24;;;;;;;25.27;15.68;;;;;;;;;;4999870;28;20037;-62
2023/12/13 06:34:50;;;;;;;24.55;16.13;;;;;;;;;;4999692;28;20034;-62
2023/12/13 06:37:16;;;;;;;26.95;16.48;;;;;;;;;;5000391;28;20040;-62
2023/12/13 06:39:42;;;;;;;25.55;16.50;;;;;;;;;;4999797;28;20060;-62
2023/12/13 06:42:08;;;;;;;27.88;15.43;;;;;;;;;;4999952;28;20975;-62
2023/12/13 06:44:37;;;;;;;27.85;15.77;;;;;;;;;;5000155;28;20041;-62
2023/12/13 06:47:05;;;;;;;27.75;15.77;;;;;;;;;;4998850;28;20029;-62
2023/12/13 06:49:32;;;;;;;26.45;15.88;;;;;;;;;;4998693;28;20156;-62
2023/12/13 06:51:58;;;;;;;26.23;15.98;;;;;;;;;;4999116;28;20048;-62
2023/12/13 06:54:25;;;;;;;30.10;16.80;;;;;;;;;;5000044;28;20029;-62
2023/12/13 06:56:51;;;;;;;28.63;17.05;;;;;;;;;;4998717;28;20022;-62
2023/12/13 06:59:17;;;;;;;26.38;16.80;;;;;;;;;;4999732;28;20026;-62
2023/12/13 07:01:43;;;;;;;25.42;15.85;;;;;;;;;;4999051;28;20030;-62
2023/12/13 07:04:09;;;;;;;24.42;15.95;;;;;;;;;;4999050;28;20033;-62
2023/12/13 07:06:35;;;;;;;26.15;16.20;;;;;;;;;;4999301;28;20041;-62
2023/12/13 07:09:02;;;;;;;28.02;16.70;;;;;;;;;;4998923;28;20389;-62
2023/12/13 07:11:28;;;;;;;26.90;17.35;;;;;;;;;;4999512;28;20025;-62
2023/12/13 07:13:54;;;;;;;25.67;16.52;;;;;;;;;;4997644;28;20845;-62
2023/12/13 07:16:20;;;;;;;28.92;17.17;;;;;;;;;;4999323;28;20454;-61
2023/12/13 07:18:46;;;;;;;32.08;17.50;;;;;;;;;;4998145;28;20061;-62
2023/12/13 07:21:12;;;;;;;34.38;17.42;;;;;;;;;;4999703;28;20021;-62
2023/12/13 07:23:40;;;;;;;32.60;18.38;;;;;;;;;;4999141;28;20034;-62
2023/12/13 07:26:07;;;;;;;30.13;17.88;;;;;;;;;;4998705;28;20029;-62
2023/12/13 07:28:33;;;;;;;28.20;17.38;;;;;;;;;;5013819;28;20056;-62
2023/12/13 07:31:04;;;;;;;29.75;18.13;;;;;;;;;;4998099;28;20064;-62
2023/12/13 07:33:30;;;;;;;29.25;17.63;;;;;;;;;;4999236;28;20037;-62
2023/12/13 07:35:56;;;;;;;27.35;17.70;;;;;;;;;;4998632;28;20026;-62
2023/12/13 07:38:22;;;;;;;28.30;17.02;;;;;;;;;;4998249;28;20038;-62
2023/12/13 07:40:49;;;;;;;31.40;18.48;;;;;;;;;;4999042;28;20038;-62
2023/12/13 07:43:15;;;;;;;26.15;18.02;;;;;;;;;;4998800;28;20468;-62
2023/12/13 07:45:41;;;;;;;26.52;17.48;;;;;;;;;;4997370;28;20030;-62
2023/12/13 07:48:07;;;;;;;24.95;17.63;;;;;;;;;;4998638;28;20060;-62
2023/12/13 07:50:33;;;;;;;28.33;18.23;;;;;;;;;;4998366;28;20041;-62
2023/12/13 07:53:00;;;;;;;30.65;18.05;;;;;;;;;;4998916;28;20046;-62
2023/12/13 07:55:26;;;;;;;30.45;17.88;;;;;;;;;;4998644;28;20051;-62
2023/12/13 07:57:52;;;;;;;31.15;17.77;;;;;;;;;;4998069;28;20065;-62
2023/12/13 08:00:19;;;;;;;30.83;18.80;;;;;;;;;;4997411;28;20018;-62
2023/12/13 08:02:45;;;;;;;35.00;18.17;;;;;;;;;;4994483;28;20119;-62
2023/12/13 08:05:13;;;;;;;28.48;17.27;;;;;;;;;;4990908;28;20037;-62
2023/12/13 08:07:39;;;;;;;29.00;17.90;;;;;;;;;;4998092;28;20564;-62
2023/12/13 08:10:08;;;;;;;31.05;18.48;;;;;;;;;;4998300;28;20037;-62
2023/12/13 08:12:34;;;;;;;34.45;19.02;;;;;;;;;;4998264;28;20048;-62
2023/12/13 08:15:01;;;;;;;30.40;18.90;;;;;;;;;;4999622;28;20041;-62
2023/12/13 08:17:29;;;;;;;37.92;19.35;;;;;;;;;;4999765;28;20046;-62
2023/12/13 08:19:55;;;;;;;31.15;18.55;;;;;;;;;;4997305;28;20646;-62
2023/12/13 08:22:21;;;;;;;32.83;18.23;;;;;;;;;;4998448;28;20030;-62
2023/12/13 08:24:47;;;;;;;36.97;18.65;;;;;;;;;;5000016;28;20068;-62
2023/12/13 08:27:13;;;;;;;33.85;18.42;;;;;;;;;;4999899;28;20040;-62
2023/12/13 08:29:40;;;;;;;35.70;18.95;;;;;;;;;;4998632;28;20045;-62
2023/12/13 08:32:06;;;;;;;26.35;17.65;;;;;;;;;;4999184;28;20030;-62
2023/12/13 08:34:33;;;;;;;32.92;19.00;;;;;;;;;;4998530;28;20485;-62
2023/12/13 08:37:00;;;;;;;37.50;19.35;;;;;;;;;;4998865;28;20030;-62
2023/12/13 08:39:26;;;;;;;28.80;18.42;;;;;;;;;;4998248;28;20040;-62
2023/12/13 08:41:53;;;;;;;32.05;18.65;;;;;;;;;;4999200;28;20041;-62
2023/12/13 08:44:19;;;;;;;35.88;19.27;;;;;;;;;;4999224;28;20615;-62
2023/12/13 08:46:46;;;;;;;39.60;18.60;;;;;;;;;;4999797;28;20084;-62
2023/12/13 08:49:12;;;;;;;28.63;19.52;;;;;;;;;;4996910;28;20777;-62
2023/12/13 08:51:38;;;;;;;33.75;19.13;;;;;;;;;;4999558;28;20064;-62
2023/12/13 08:54:04;;;;;;;40.75;21.17;;;;;;;;;;4999669;28;20084;-62
2023/12/13 08:56:31;;;;;;;33.13;19.58;;;;;;;;;;4998699;28;20040;-62
2023/12/13 08:58:58;;;;;;;41.60;21.13;;;;;;;;;;5000034;28;20128;-62
2023/12/13 09:01:24;;;;;;;43.95;22.52;;;;;;;;;;4999524;28;20029;-62
2023/12/13 09:03:53;;;;;;;35.90;19.75;;;;;;;;;;4998578;28;20037;-62
2023/12/13 09:06:20;;;;;;;32.35;19.85;;;;;;;;;;4998954;28;20445;-62
2023/12/13 09:08:46;;;;;;;34.42;20.02;;;;;;;;;;4999693;28;20029;-62
2023/12/13 09:11:12;;;;;;;35.42;20.70;;;;;;;;;;4997077;28;20059;-62
2023/12/13 09:13:38;;;;;;;39.05;21.98;;;;;;;;;;4998265;28;20787;-62
2023/12/13 09:16:05;;;;;;;36.90;22.65;;;;;;;;;;4997938;28;20032;-62
2023/12/13 09:18:31;;;;;;;41.83;22.10;;;;;;;;;;4998180;28;20027;-62
2023/12/13 09:20:57;;;;;;;34.30;21.65;;;;;;;;;;4998528;28;20117;-62
2023/12/13 09:23:24;;;;;;;35.97;21.75;;;;;;;;;;4997800;28;21206;-62
2023/12/13 09:25:50;;;;;;;40.22;21.83;;;;;;;;;;4997693;28;21071;-62
2023/12/13 09:28:16;;;;;;;38.25;21.67;;;;;;;;;;4998294;28;20076;-62
2023/12/13 09:30:43;;;;;;;39.35;21.90;;;;;;;;;;4998471;28;20033;-62
2023/12/13 09:33:12;;;;;;;39.55;21.58;;;;;;;;;;4998578;28;20040;-62
2023/12/13 09:35:38;;;;;;;36.88;22.25;;;;;;;;;;4997930;28;20034;-62
2023/12/13 09:38:04;;;;;;;36.90;22.02;;;;;;;;;;4997683;28;20040;-62
2023/12/13 09:40:31;;;;;;;34.78;21.08;;;;;;;;;;4998538;28;20029;-62
2023/12/13 09:42:57;;;;;;;34.17;21.48;;;;;;;;;;4997489;28;20029;-62
2023/12/13 09:45:23;;;;;;;37.80;21.67;;;;;;;;;;4997755;28;20062;-62
2023/12/13 09:47:51;;;;;;;36.58;21.23;;;;;;;;;;4997664;28;20038;-62
2023/12/13 09:50:17;;;;;;;36.75;22.08;;;;;;;;;;4998158;28;20087;-62
2023/12/13 09:52:44;;;;;;;37.47;23.05;;;;;;;;;;4997954;28;20044;-62
2023/12/13 09:55:13;;;;;;;34.53;21.60;;;;;;;;;;4997716;28;21518;-62
2023/12/13 09:57:39;;;;;;;39.85;23.27;;;;;;;;;;4997846;28;20036;-62
2023/12/13 10:00:05;;;;;;;36.45;21.58;;;;;;;;;;4998138;28;20161;-62
2023/12/13 10:02:32;;;;;;;33.35;22.00;;;;;;;;;;5001939;28;20120;-62
2023/12/13 10:05:02;;;;;;;50.25;25.42;;;;;;;;;;5001624;28;20485;-62
2023/12/13 10:07:28;;;;;;;36.55;21.92;;;;;;;;;;5001421;28;20076;-62
2023/12/13 10:09:55;;;;;;;41.30;23.45;;;;;;;;;;5001499;28;20038;-62
2023/12/13 10:12:22;;;;;;;36.70;21.88;;;;;;;;;;5001530;28;20033;-62
2023/12/13 10:14:48;;;;;;;39.22;22.30;;;;;;;;;;5001231;28;20044;-62
2023/12/13 10:17:14;;;;;;;37.55;21.58;;;;;;;;;;5001148;28;20032;-62
2023/12/13 10:19:40;;;;;;;39.50;23.58;;;;;;;;;;5001806;28;20026;-62
2023/12/13 10:22:06;;;;;;;38.95;22.40;;;;;;;;;;5001540;28;20037;-62
2023/12/13 10:24:33;;;;;;;37.17;22.65;;;;;;;;;;5001937;28;20033;-62
2023/12/13 10:26:59;;;;;;;42.83;22.88;;;;;;;;;;5001500;28;20155;-62
2023/12/13 10:29:25;;;;;;;39.13;22.17;;;;;;;;;;5000485;28;20037;-62
2023/12/13 10:31:53;;;;;;;34.28;22.17;;;;;;;;;;5001477;28;20038;-62
2023/12/13 10:34:19;;;;;;;42.10;23.08;;;;;;;;;;5001867;28;20124;-62
2023/12/13 10:36:46;;;;;;;40.35;21.60;;;;;;;;;;5001070;28;20022;-62
2023/12/13 10:39:13;;;;;;;46.65;23.63;;;;;;;;;;5000191;28;20033;-62
2023/12/13 10:41:42;;;;;;;41.58;22.55;;;;;;;;;;5000267;28;21186;-62
2023/12/13 10:44:09;;;;;;;40.67;21.83;;;;;;;;;;5000418;28;20018;-62
2023/12/13 10:46:36;;;;;;;42.13;23.42;;;;;;;;;;4998622;28;20034;-62
2023/12/13 10:49:06;;;;;;;39.20;22.73;;;;;;;;;;5015650;28;20041;-62
2023/12/13 10:51:34;;;;;;;44.35;23.27;;;;;;;;;;5000403;28;20495;-62
2023/12/13 10:54:01;;;;;;;40.90;23.33;;;;;;;;;;5000373;28;20034;-62
2023/12/13 10:56:27;;;;;;;58.80;23.92;;;;;;;;;;4999507;28;20544;-62
2023/12/13 10:58:53;;;;;;;51.67;22.80;;;;;;;;;;5000056;28;20160;-62
2023/12/13 11:01:21;;;;;;;39.00;22.27;;;;;;;;;;4999559;28;20037;-62
2023/12/13 11:03:50;;;;;;;41.25;23.27;;;;;;;;;;4997837;28;20033;-62
2023/12/13 11:06:16;;;;;;;46.65;22.08;;;;;;;;;;4998870;28;20036;-62
2023/12/13 11:08:43;;;;;;;47.58;22.67;;;;;;;;;;5001680;28;20124;-62
2023/12/13 11:11:11;;;;;;;46.38;22.90;;;;;;;;;;4999674;28;20029;-62
2023/12/13 11:13:49;;;;;;;47.80;24.52;;;;;;;;;;4998542;28;20795;-62
2023/12/13 11:16:16;;;;;;;43.25;22.40;;;;;;;;;;5000564;28;20060;-62
2023/12/13 11:18:45;;;;;;;49.72;23.08;;;;;;;;;;4998368;28;20029;-62
2023/12/13 11:21:13;;;;;;;46.35;23.17;;;;;;;;;;4998987;28;20037;-62
2023/12/13 11:23:41;;;;;;;50.00;22.75;;;;;;;;;;4999833;28;20404;-62
2023/12/13 11:26:14;;;;;;;53.13;24.35;;;;;;;;;;4998531;28;20037;-62
2023/12/13 11:28:40;;;;;;;41.03;22.38;;;;;;;;;;4999032;28;20076;-64
2023/12/13 11:31:10;;;;;;;49.75;24.45;;;;;;;;;;4996687;28;20269;-64
2023/12/13 11:33:36;;;;;;;46.50;22.30;;;;;;;;;;4999343;28;20502;-64
2023/12/13 11:36:09;;;;;;;53.42;24.20;;;;;;;;;;4999997;28;20480;-64
2023/12/13 11:38:35;;;;;;;48.83;24.92;;;;;;;;;;4993336;28;20056;-64
2023/12/13 11:41:02;;;;;;;49.72;24.52;;;;;;;;;;4995470;28;20037;-64
2023/12/13 11:43:29;;;;;;;48.17;22.60;;;;;;;;;;4999428;28;20929;-64
2023/12/13 11:45:55;;;;;;;48.42;24.65;;;;;;;;;;4999836;28;21181;-64
2023/12/13 11:48:22;;;;;;;44.67;23.35;;;;;;;;;;4995519;28;20137;-64
2023/12/13 11:50:50;;;;;;;43.72;21.85;;;;;;;;;;4998552;28;20136;-64
2023/12/13 11:53:16;;;;;;;34.53;20.15;;;;;;;;;;4999659;28;20037;-64
2023/12/13 11:55:43;;;;;;;36.78;21.23;;;;;;;;;;4997556;28;20174;-64
2023/12/13 11:58:09;;;;;;;38.08;21.60;;;;;;;;;;4996924;28;20040;-64
2023/12/13 12:00:35;;;;;;;43.40;22.42;;;;;;;;;;4995098;28;20052;-64
2023/12/13 12:03:01;;;;;;;44.08;23.08;;;;;;;;;;4998701;28;20030;-63
2023/12/13 12:05:28;;;;;;;45.15;23.52;;;;;;;;;;4999581;28;20719;-64
2023/12/13 12:08:04;;;;;;;42.15;22.65;;;;;;;;;;4986330;28;20067;-64
2023/12/13 12:10:31;;;;;;;46.70;22.73;;;;;;;;;;4999980;28;20044;-64
2023/12/13 12:13:00;;;;;;;43.20;21.52;;;;;;;;;;4999922;28;20033;-64
2023/12/13 12:15:26;;;;;;;41.33;22.48;;;;;;;;;;5000045;28;20021;-64
2023/12/13 12:17:54;;;;;;;45.90;21.92;;;;;;;;;;4999579;28;20030;-64
2023/12/13 12:20:21;;;;;;;50.15;24.20;;;;;;;;;;4999725;28;20037;-64
2023/12/13 12:22:47;;;;;;;45.25;23.75;;;;;;;;;;4999236;28;20176;-64
2023/12/13 12:25:13;;;;;;;39.35;22.42;;;;;;;;;;4999552;28;20636;-64
2023/12/13 12:27:49;;;;;;;36.13;20.17;;;;;;;;;;4999788;28;20480;-64
2023/12/13 12:30:17;;;;;;;30.45;18.13;;;;;;;;;;4999334;28;20030;-64
2023/12/13 12:32:43;;;;;;;30.13;17.17;;;;;;;;;;4998069;28;20037;-64
2023/12/13 12:35:09;;;;;;;38.05;19.30;;;;;;;;;;4998358;28;20045;-64
2023/12/13 12:37:35;;;;;;;29.05;17.50;;;;;;;;;;4998868;28;20029;-64
2023/12/13 12:40:03;;;;;;;33.10;18.20;;;;;;;;;;4999062;28;20037;-64
2023/12/13 12:42:29;;;;;;;34.75;15.73;;;;;;;;;;4998015;28;20038;-64
2023/12/13 12:44:55;;;;;;;23.33;12.88;;;;;;;;;;4999625;28;20025;-64
2023/12/13 12:47:21;;;;;;;20.88;12.13;;;;;;;;;;4998855;28;20025;-64
2023/12/13 12:49:47;;;;;;;19.02;10.60;;;;;;;;;;4999098;28;20041;-64
2023/12/13 12:52:13;;;;;;;20.70;10.85;;;;;;;;;;4998829;28;20160;-64
2023/12/13 12:54:40;;;;;;;15.57;9.20;;;;;;;;;;4999233;28;20034;-64
2023/12/13 12:57:06;;;;;;;14.52;9.50;;;;;;;;;;4998425;28;20080;-64
2023/12/13 12:59:32;;;;;;;13.65;8.15;;;;;;;;;;4999653;28;20354;-64
2023/12/13 13:01:58;;;;;;;12.38;7.50;;;;;;;;;;4998497;28;20029;-64
2023/12/13 13:04:25;;;;;;;13.45;6.82;;;;;;;;;;4999458;28;20041;-64
2023/12/13 13:06:51;;;;;;;12.45;7.05;;;;;;;;;;4998552;28;20145;-64
2023/12/13 13:09:17;;;;;;;12.15;7.57;;;;;;;;;;4999511;28;21487;-64
2023/12/13 13:11:43;;;;;;;13.20;7.35;;;;;;;;;;4999011;28;22060;-65
2023/12/13 13:14:09;;;;;;;20.02;8.88;;;;;;;;;;4998908;28;20883;-64
2023/12/13 13:16:36;;;;;;;15.10;6.63;;;;;;;;;;4998505;28;20029;-64
2023/12/13 13:19:05;;;;;;;11.75;6.82;;;;;;;;;;4998851;28;20026;-64
2023/12/13 13:21:31;;;;;;;10.35;6.20;;;;;;;;;;4999111;28;20026;-64
2023/12/13 13:23:57;;;;;;;12.70;7.10;;;;;;;;;;4999002;28;20045;-65
2023/12/13 13:26:23;;;;;;;11.05;7.10;;;;;;;;;;4998912;28;20038;-65
2023/12/13 13:28:49;;;;;;;12.57;7.63;;;;;;;;;;4998496;28;20631;-65
2023/12/13 13:31:15;;;;;;;15.85;7.82;;;;;;;;;;4998597;28;20033;-64
2023/12/13 13:33:44;;;;;;;14.50;8.40;;;;;;;;;;4998215;28;20076;-65
2023/12/13 13:36:10;;;;;;;9.98;5.22;;;;;;;;;;5000212;28;20025;-65
2023/12/13 13:38:36;;;;;;;8.70;4.90;;;;;;;;;;5002611;28;20037;-65
2023/12/13 13:41:02;;;;;;;13.43;7.70;;;;;;;;;;5001394;28;20072;-64
2023/12/13 13:43:30;;;;;;;9.68;5.60;;;;;;;;;;5002426;28;20192;-64
2023/12/13 13:45:56;;;;;;;9.23;4.70;;;;;;;;;;5002640;28;20761;-65
2023/12/13 13:48:22;;;;;;;7.55;4.65;;;;;;;;;;5002844;28;20551;-65
2023/12/13 13:50:49;;;;;;;8.85;4.85;;;;;;;;;;5002179;28;20029;-64
2023/12/13 13:53:15;;;;;;;8.80;5.18;;;;;;;;;;5002624;28;21054;-65
2023/12/13 13:55:41;;;;;;;11.95;6.50;;;;;;;;;;5002426;28;20038;-64
2023/12/13 13:58:07;;;;;;;9.40;6.10;;;;;;;;;;5003603;28;20576;-64
2023/12/13 14:00:33;;;;;;;10.02;6.32;;;;;;;;;;5002351;28;20072;-64
2023/12/13 14:02:59;;;;;;;12.35;7.25;;;;;;;;;;5001827;28;21283;-65
2023/12/13 14:05:26;;;;;;;10.23;7.03;;;;;;;;;;5001574;28;20385;-64
2023/12/13 14:07:54;;;;;;;10.43;5.82;;;;;;;;;;5001516;28;20026;-65
2023/12/13 14:10:20;;;;;;;9.07;5.20;;;;;;;;;;5001038;28;20592;-65
2023/12/13 14:12:47;;;;;;;8.18;5.18;;;;;;;;;;5002313;28;20048;-65
2023/12/13 14:15:13;;;;;;;7.07;3.72;;;;;;;;;;5002327;28;20072;-65